Time;durP1;ratioP1;P1;durP2;ratioP2;P2;SDS_P1;SDS_P2;PMS_P1;PMS_P2;Temp;Humidity;BMP_temperature;BMP_pressure;BME280_temperature;BME280_humidity;BME280_pressure;Samples;Min_cycle;Max_cycle;Signal;HPM_P1;HPM_P2
2021/04/02 00:02:42;;;;;;;42.15;25.10;;;;;;;8.75;78.12;100152.98;2155047;81;21151;-72
2021/04/02 00:05:43;;;;;;;41.90;27.62;;;;;;;8.69;77.81;100151.45;2161873;81;21188;-72
2021/04/02 00:08:45;;;;;;;44.90;24.75;;;;;;;8.64;77.64;100157.19;2139350;81;21184;-72
2021/04/02 00:11:46;;;;;;;44.08;26.30;;;;;;;8.60;78.12;100161.14;2138259;81;21112;-72
2021/04/02 00:14:48;;;;;;;36.05;22.20;;;;;;;8.57;77.66;100160.13;2138322;81;21599;-72
2021/04/02 00:17:49;;;;;;;30.37;19.52;;;;;;;8.55;78.01;100162.58;2131417;81;21113;-72
2021/04/02 00:20:51;;;;;;;24.87;18.82;;;;;;;8.43;77.39;100161.49;2125425;82;22524;-72
2021/04/02 00:23:52;;;;;;;29.23;19.15;;;;;;;8.31;77.16;100164.00;2099053;82;21106;-71
2021/04/02 00:26:54;;;;;;;24.45;16.97;;;;;;;8.17;77.07;100170.64;2102879;82;21101;-71
2021/04/02 00:29:55;;;;;;;25.85;17.15;;;;;;;8.05;77.52;100171.35;2130280;82;21172;-72
2021/04/02 00:32:56;;;;;;;23.38;16.17;;;;;;;7.92;77.64;100166.91;2124775;81;21176;-71
2021/04/02 00:36:01;;;;;;;23.98;16.62;;;;;;;7.87;77.69;100170.48;2130230;82;21199;-73
2021/04/02 00:39:04;;;;;;;24.47;16.93;;;;;;;7.80;77.48;100165.45;2100655;82;21191;-71
2021/04/02 00:42:07;;;;;;;25.30;16.95;;;;;;;7.70;77.47;100166.81;2150788;80;21060;-72
2021/04/02 00:45:09;;;;;;;24.85;17.48;;;;;;;7.64;78.53;100173.52;2128780;81;21114;-72
2021/04/02 00:48:11;;;;;;;20.70;16.27;;;;;;;7.58;78.31;100176.74;2133258;81;21174;-71
2021/04/02 00:51:26;;;;;;;21.73;16.82;;;;;;;7.48;78.04;100176.44;2156064;81;21130;-71
2021/04/02 00:54:28;;;;;;;22.50;17.75;;;;;;;7.36;78.66;100177.94;2129382;81;22228;-72
2021/04/02 00:57:32;;;;;;;25.23;18.15;;;;;;;7.22;78.02;100182.36;2114886;81;21559;-71
2021/04/02 01:00:33;;;;;;;24.15;17.40;;;;;;;7.10;78.43;100179.56;2137185;81;21250;-72
2021/04/02 01:03:35;;;;;;;22.25;16.82;;;;;;;6.98;78.62;100185.46;2156924;81;21579;-72
2021/04/02 01:06:38;;;;;;;23.65;17.57;;;;;;;6.86;78.56;100177.38;2122270;82;21172;-72
2021/04/02 01:09:40;;;;;;;20.97;16.27;;;;;;;6.77;78.32;100192.73;2106970;81;21232;-72
2021/04/02 01:12:42;;;;;;;20.77;15.78;;;;;;;6.66;78.38;100193.21;2130584;82;21165;-72
2021/04/02 01:16:08;;;;;;;17.85;13.48;;;;;;;6.60;78.80;100199.05;2135323;81;21203;-72
2021/04/02 01:19:18;;;;;;;21.57;15.80;;;;;;;6.56;79.23;100198.99;2135778;81;21192;-72
2021/04/02 01:22:23;;;;;;;19.30;15.13;;;;;;;6.48;78.87;100193.09;2138144;81;22397;-72
2021/04/02 01:25:36;;;;;;;19.35;15.05;;;;;;;6.43;79.00;100195.80;2139849;80;21115;-72
2021/04/02 01:28:49;;;;;;;17.73;14.73;;;;;;;6.39;79.09;100198.34;2092660;83;21120;-72
2021/04/02 01:31:57;;;;;;;24.27;16.42;;;;;;;6.35;79.26;100211.45;2145474;80;21681;-72
2021/04/02 01:35:13;;;;;;;19.35;14.87;;;;;;;6.33;79.11;100219.98;2149479;80;21163;-73
2021/04/02 01:38:31;;;;;;;18.92;14.68;;;;;;;6.29;78.99;100213.66;2128163;81;21223;-72
2021/04/02 01:41:36;;;;;;;19.77;14.98;;;;;;;6.17;79.48;100214.77;2149801;81;21138;-72
2021/04/02 01:44:41;;;;;;;18.92;14.35;;;;;;;6.15;79.55;100214.06;2147961;81;21535;-73
2021/04/02 01:47:44;;;;;;;19.48;13.40;;;;;;;6.12;79.66;100213.02;2145450;80;21179;-72
2021/04/02 01:50:50;;;;;;;20.82;14.45;;;;;;;6.04;79.84;100222.91;2146151;81;21533;-72
2021/04/02 01:53:56;;;;;;;21.87;14.75;;;;;;;5.97;79.96;100227.52;2141094;81;21144;-73
2021/04/02 01:57:01;;;;;;;19.95;14.07;;;;;;;5.91;80.37;100235.93;2143873;81;21215;-73
2021/04/02 02:00:20;;;;;;;22.48;15.58;;;;;;;5.88;80.08;100229.62;2152102;81;21135;-72
2021/04/02 02:03:25;;;;;;;22.80;14.95;;;;;;;5.87;80.50;100226.64;2154814;81;21286;-73
2021/04/02 02:06:28;;;;;;;19.12;14.93;;;;;;;5.84;80.41;100228.57;2125882;81;21163;-73
2021/04/02 02:09:39;;;;;;;22.00;16.27;;;;;;;5.83;80.41;100232.18;2148236;81;21173;-73
2021/04/02 02:12:45;;;;;;;24.12;16.30;;;;;;;5.84;80.53;100229.06;2147732;81;21169;-72
2021/04/02 02:15:59;;;;;;;22.82;15.80;;;;;;;5.82;80.52;100238.88;2121165;81;21514;-73
2021/04/02 02:19:05;;;;;;;24.65;16.42;;;;;;;5.76;80.70;100245.52;2118331;82;21165;-71
2021/04/02 02:22:10;;;;;;;29.50;19.05;;;;;;;5.73;81.23;100243.15;2121376;82;21117;-72
2021/04/02 02:25:14;;;;;;;25.97;17.92;;;;;;;5.71;81.15;100252.97;2122023;82;21200;-72
2021/04/02 02:28:17;;;;;;;26.37;17.85;;;;;;;5.68;80.97;100250.61;2102234;83;21119;-72
2021/04/02 02:31:19;;;;;;;23.77;16.48;;;;;;;5.70;81.09;100264.48;2111712;83;21181;-72
2021/04/02 02:34:22;;;;;;;25.15;18.52;;;;;;;5.74;81.40;100271.13;2122236;82;21156;-72
2021/04/02 02:37:25;;;;;;;25.60;18.92;;;;;;;5.72;81.28;100268.31;2123832;82;21128;-72
2021/04/02 02:40:32;;;;;;;25.45;19.02;;;;;;;5.71;81.16;100267.94;2127501;82;21117;-73
2021/04/02 02:43:34;;;;;;;24.18;17.67;;;;;;;5.68;80.99;100269.52;2106872;82;21178;-72
2021/04/02 02:46:37;;;;;;;23.42;18.55;;;;;;;5.66;81.67;100272.30;2121833;82;21183;-72
2021/04/02 02:49:42;;;;;;;23.22;18.73;;;;;;;5.67;81.57;100283.17;2121635;82;21171;-72
2021/04/02 02:52:48;;;;;;;21.52;17.32;;;;;;;5.69;81.54;100279.08;2127232;82;21173;-72
2021/04/02 02:55:53;;;;;;;22.90;18.27;;;;;;;5.65;82.09;100282.46;2123754;82;21203;-72
2021/04/02 02:58:58;;;;;;;23.92;17.70;;;;;;;5.63;82.04;100292.28;2125531;82;21736;-72
2021/04/02 03:02:01;;;;;;;22.50;16.62;;;;;;;5.62;81.60;100284.05;2095856;82;21181;-72
2021/04/02 03:05:05;;;;;;;19.87;14.93;;;;;;;5.60;81.88;100293.86;2112222;82;21508;-73
2021/04/02 03:08:10;;;;;;;21.35;14.73;;;;;;;5.51;81.96;100296.80;2114135;82;21164;-72
2021/04/02 03:11:15;;;;;;;19.98;15.63;;;;;;;5.42;81.82;100288.86;2041188;84;21364;-72
2021/04/02 03:14:20;;;;;;;17.17;13.58;;;;;;;5.37;81.82;100299.27;2130018;82;21167;-72
2021/04/02 03:17:24;;;;;;;15.55;12.47;;;;;;;5.36;81.82;100302.88;2103615;83;21140;-72
2021/04/02 03:20:26;;;;;;;15.60;11.80;;;;;;;5.35;81.56;100306.48;2077628;84;21612;-72
2021/04/02 03:23:29;;;;;;;16.05;12.65;;;;;;;5.30;81.52;100308.66;2078947;84;21159;-72
2021/04/02 03:26:32;;;;;;;15.93;11.90;;;;;;;5.29;81.39;100313.55;2083082;83;21156;-72
2021/04/02 03:29:35;;;;;;;19.27;12.68;;;;;;;5.29;81.31;100316.17;2047319;84;21231;-72
2021/04/02 03:32:42;;;;;;;18.50;14.10;;;;;;;5.25;81.41;100313.46;2079997;84;21128;-72
2021/04/02 03:35:46;;;;;;;16.32;13.43;;;;;;;5.16;81.24;100320.33;2054739;84;21104;-72
2021/04/02 03:38:50;;;;;;;16.27;12.07;;;;;;;5.11;81.50;100324.30;2077921;83;21218;-72
2021/04/02 03:41:57;;;;;;;15.20;11.60;;;;;;;5.05;81.32;100322.17;2082607;84;21501;-72
2021/04/02 03:45:02;;;;;;;16.77;12.58;;;;;;;4.97;81.45;100318.85;2070038;84;21153;-72
2021/04/02 03:48:07;;;;;;;19.10;12.53;;;;;;;4.96;81.33;100326.40;2059949;84;21172;-72
2021/04/02 03:51:15;;;;;;;13.43;10.55;;;;;;;4.93;81.11;100323.53;2078437;83;21559;-72
2021/04/02 03:54:17;;;;;;;11.20;9.93;;;;;;;4.91;80.91;100320.67;2060799;85;21093;-72
2021/04/02 03:57:21;;;;;;;12.18;9.90;;;;;;;4.88;80.87;100326.19;2078950;84;21153;-72
2021/04/02 04:00:31;;;;;;;12.30;10.68;;;;;;;4.88;80.82;100321.76;2101376;82;21199;-72
2021/04/02 04:03:35;;;;;;;;;;;;;;;4.86;80.93;100321.03;2103653;82;21128;-72
2021/04/02 04:06:38;;;;;;;15.58;11.68;;;;;;;4.84;80.59;100326.92;2130967;82;20148;-72
2021/04/02 04:09:44;;;;;;;12.35;10.43;;;;;;;4.77;80.69;100336.73;2119827;82;21545;-72
2021/04/02 04:12:52;;;;;;;14.25;11.53;;;;;;;4.69;80.98;100330.78;2126165;82;21190;-72
2021/04/02 04:15:56;;;;;;;13.10;11.18;;;;;;;4.59;80.85;100337.72;2094096;82;21131;-72
2021/04/02 04:19:01;;;;;;;12.75;10.50;;;;;;;4.51;81.04;100327.02;2113639;82;21172;-72
2021/04/02 04:22:06;;;;;;;12.78;10.98;;;;;;;4.45;81.02;100325.22;2119073;82;21361;-72
2021/04/02 04:25:12;;;;;;;15.43;12.00;;;;;;;4.41;81.21;100327.72;2116357;82;21092;-72
2021/04/02 04:28:17;;;;;;;11.45;10.10;;;;;;;4.40;81.22;100329.17;2115457;82;21111;-72
2021/04/02 04:31:20;;;;;;;15.15;11.93;;;;;;;4.38;81.20;100330.59;2121243;82;21190;-73
2021/04/02 04:34:23;;;;;;;13.55;11.12;;;;;;;4.38;81.07;100337.16;2089086;82;21195;-72
2021/04/02 04:37:25;;;;;;;12.25;10.95;;;;;;;4.36;80.74;100329.05;2114918;82;21096;-72
2021/04/02 04:40:28;;;;;;;12.95;9.10;;;;;;;4.35;80.46;100331.33;2115668;82;21599;-72
2021/04/02 04:43:30;;;;;;;10.72;9.08;;;;;;;4.31;79.35;100332.06;2129443;82;21592;-72
2021/04/02 04:46:33;;;;;;;12.05;9.45;;;;;;;4.27;79.12;100336.70;2141085;82;21100;-71
2021/04/02 04:49:35;;;;;;;10.38;8.98;;;;;;;4.20;78.93;100330.27;2114722;81;21156;-72
2021/04/02 04:52:42;;;;;;;9.20;8.25;;;;;;;4.14;78.91;100341.27;2137310;82;21183;-71
2021/04/02 04:55:45;;;;;;;9.40;8.38;;;;;;;4.14;78.81;100333.84;2088649;82;21172;-72
2021/04/02 04:58:51;;;;;;;9.70;7.62;;;;;;;4.11;78.71;100346.76;2114484;82;21175;-71
2021/04/02 05:01:55;;;;;;;11.53;8.45;;;;;;;4.08;78.72;100346.14;2105415;83;21167;-72
2021/04/02 05:04:59;;;;;;;9.75;8.30;;;;;;;4.07;78.38;100347.10;2096715;83;21651;-72
2021/04/02 05:08:06;;;;;;;10.03;8.68;;;;;;;4.05;78.48;100353.77;2104473;83;21623;-72
2021/04/02 05:11:12;;;;;;;9.90;8.50;;;;;;;4.04;78.33;100357.36;2092878;83;21112;-71
2021/04/02 05:14:16;;;;;;;10.65;8.63;;;;;;;4.01;78.09;100361.06;2097154;83;21241;-70
2021/04/02 05:17:19;;;;;;;10.18;8.30;;;;;;;4.00;78.19;100366.45;2121470;82;21170;-70
2021/04/02 05:20:26;;;;;;;11.65;9.28;;;;;;;4.00;78.19;100368.59;2116427;82;21175;-72
2021/04/02 05:23:28;;;;;;;10.38;9.20;;;;;;;4.03;78.17;100372.77;2109271;82;21198;-71
2021/04/02 05:26:30;;;;;;;10.10;9.00;;;;;;;4.07;78.13;100378.61;2119025;82;21620;-71
2021/04/02 05:29:32;;;;;;;8.63;7.67;;;;;;;4.09;78.03;100386.73;2125815;82;21121;-71
2021/04/02 05:32:34;;;;;;;9.98;8.78;;;;;;;4.15;77.88;100393.30;2124726;82;21129;-72
2021/04/02 05:35:36;;;;;;;10.63;9.53;;;;;;;4.14;77.72;100395.10;2099928;82;21089;-72
2021/04/02 05:38:37;;;;;;;11.63;10.13;;;;;;;4.11;77.76;100390.54;2118954;82;21108;-70
2021/04/02 05:42:07;;;;;;;10.75;9.48;;;;;;;4.08;77.79;100396.86;2118690;82;21166;-69
2021/04/02 05:45:12;;;;;;;11.20;9.95;;;;;;;4.08;77.87;100397.34;2115113;82;21202;-70
2021/04/02 05:48:16;;;;;;;10.55;9.45;;;;;;;4.10;77.75;100403.33;2114454;82;21183;-71
2021/04/02 05:51:18;;;;;;;12.88;10.90;;;;;;;4.09;77.55;100407.75;2117625;82;21734;-70
2021/04/02 05:54:31;;;;;;;14.35;10.48;;;;;;;4.09;77.63;100405.60;2115117;82;21648;-69
2021/04/02 05:57:33;;;;;;;11.93;10.03;;;;;;;4.12;77.60;100407.98;2118987;82;21171;-71
2021/04/02 06:00:37;;;;;;;10.58;9.05;;;;;;;4.19;77.64;100407.38;2111953;82;21174;-71
2021/04/02 06:03:39;;;;;;;9.90;8.70;;;;;;;4.20;76.90;100409.55;2122258;82;21204;-70
2021/04/02 06:06:41;;;;;;;9.90;8.83;;;;;;;4.20;76.64;100413.49;2122897;82;21132;-70
2021/04/02 06:09:42;;;;;;;12.63;9.43;;;;;;;4.22;76.70;100420.30;2116691;82;21080;-72
2021/04/02 06:12:44;;;;;;;9.70;8.68;;;;;;;4.26;76.56;100422.20;2118893;82;21187;-70
2021/04/02 06:15:46;;;;;;;12.25;9.05;;;;;;;4.30;76.43;100426.25;2112817;82;21651;-72
2021/04/02 06:18:47;;;;;;;15.43;9.65;;;;;;;4.26;75.39;100423.52;2108097;82;21295;-70
2021/04/02 06:21:55;;;;;;;10.50;8.70;;;;;;;4.26;75.93;100424.83;2112203;82;21199;-71
2021/04/02 06:25:04;;;;;;;11.88;9.08;;;;;;;4.28;75.62;100426.87;2106305;82;21159;-73
2021/04/02 06:28:31;;;;;;;9.15;8.00;;;;;;;4.29;75.64;100427.22;2110576;82;22308;-72
2021/04/02 06:31:34;;;;;;;9.18;8.23;;;;;;;4.32;75.31;100428.77;2110160;82;21152;-73
2021/04/02 06:34:47;;;;;;;9.70;7.42;;;;;;;4.34;75.16;100423.77;2116883;82;21236;-71
2021/04/02 06:37:55;;;;;;;7.87;7.05;;;;;;;4.37;74.58;100432.72;2113580;83;21215;-68
2021/04/02 06:41:01;;;;;;;8.65;7.85;;;;;;;4.44;74.29;100439.63;2108435;82;21169;-72
2021/04/02 06:44:05;;;;;;;8.28;7.47;;;;;;;4.46;74.02;100440.36;2118923;82;21171;-72
2021/04/02 06:47:07;;;;;;;8.68;7.47;;;;;;;4.52;74.59;100443.81;2112651;82;21662;-70
2021/04/02 06:50:24;;;;;;;10.35;7.28;;;;;;;4.62;74.13;100442.63;2109653;82;21624;-70
2021/04/02 06:53:28;;;;;;;7.95;7.20;;;;;;;4.63;73.86;100443.81;2113557;82;21355;-70
2021/04/02 06:56:32;;;;;;;8.23;7.42;;;;;;;4.74;73.36;100446.92;2113016;82;21198;-70
2021/04/02 06:59:36;;;;;;;8.58;7.35;;;;;;;4.77;73.28;100445.36;2112399;83;21522;-70
2021/04/02 07:02:39;;;;;;;7.70;6.97;;;;;;;4.82;72.50;100445.83;2114456;82;21128;-70
2021/04/02 07:05:41;;;;;;;8.33;7.53;;;;;;;4.79;72.21;100452.66;2110057;82;21156;-71
2021/04/02 07:08:44;;;;;;;9.53;8.28;;;;;;;4.81;72.37;100459.92;2114716;82;21136;-70
2021/04/02 07:11:51;;;;;;;8.50;7.70;;;;;;;4.89;72.28;100459.31;2111813;82;21172;-70
2021/04/02 07:14:55;;;;;;;9.15;8.23;;;;;;;4.87;70.99;100459.45;2115561;82;21173;-71
2021/04/02 07:17:57;;;;;;;8.45;7.55;;;;;;;4.88;71.58;100456.34;2112607;82;21183;-71
2021/04/02 07:21:00;;;;;;;9.98;8.65;;;;;;;4.91;71.39;100458.24;2116661;82;21172;-71
2021/04/02 07:24:03;;;;;;;9.88;8.73;;;;;;;5.05;71.80;100471.61;2119929;83;21132;-71
2021/04/02 07:27:06;;;;;;;12.78;8.55;;;;;;;5.13;71.42;100466.58;2108983;82;21172;-71
2021/04/02 07:30:14;;;;;;;11.93;8.68;;;;;;;5.26;70.50;100466.89;2114495;82;21165;-70
2021/04/02 07:33:18;;;;;;;11.08;8.33;;;;;;;5.27;70.12;100473.36;2109427;82;21132;-71
2021/04/02 07:36:20;;;;;;;12.10;9.03;;;;;;;5.36;70.58;100468.66;2091907;82;22625;-71
2021/04/02 07:39:24;;;;;;;12.55;9.25;;;;;;;5.51;70.86;100467.05;2112638;83;21120;-72
2021/04/02 07:42:29;;;;;;;10.53;9.50;;;;;;;5.66;69.88;100466.27;2108219;82;21207;-69
2021/04/02 07:45:38;;;;;;;10.60;9.40;;;;;;;5.71;70.20;100464.92;2111622;83;21159;-71
2021/04/02 07:48:37;;;;;;;11.63;10.38;;;;;;;5.77;69.71;100467.53;2109635;82;21173;-69
2021/04/02 07:51:48;;;;;;;11.18;9.98;;;;;;;5.88;69.73;100474.05;2115714;82;21180;-70
2021/04/02 07:54:54;;;;;;;15.70;11.57;;;;;;;6.00;68.91;100473.57;2116278;82;21153;-72
2021/04/02 07:58:05;;;;;;;11.33;9.85;;;;;;;6.01;68.68;100471.28;2084479;82;21564;-72
2021/04/02 08:01:08;;;;;;;13.37;11.57;;;;;;;6.15;68.98;100480.17;2112692;83;21242;-72
2021/04/02 08:04:10;;;;;;;11.80;9.93;;;;;;;6.22;68.04;100467.30;2115507;82;21564;-72
2021/04/02 08:07:17;;;;;;;11.43;10.23;;;;;;;6.32;67.62;100473.47;2110019;82;21184;-72
2021/04/02 08:10:20;;;;;;;11.50;10.35;;;;;;;6.46;68.03;100479.72;2115589;82;21112;-72
2021/04/02 08:13:25;;;;;;;10.32;9.00;;;;;;;6.72;68.21;100481.91;2117328;82;21136;-73
2021/04/02 08:16:34;;;;;;;10.55;9.53;;;;;;;6.94;67.19;100483.52;2114482;82;21112;-72
2021/04/02 08:19:41;;;;;;;12.75;11.20;;;;;;;7.21;67.21;100482.04;2114020;82;21180;-71
2021/04/02 08:22:45;;;;;;;14.38;12.88;;;;;;;7.40;66.62;100479.43;2113836;82;21598;-71
2021/04/02 08:25:46;;;;;;;14.35;12.98;;;;;;;7.48;65.92;100482.22;2113030;83;21172;-71
2021/04/02 08:28:48;;;;;;;13.83;12.40;;;;;;;7.63;65.40;100472.94;2110835;82;21216;-69
2021/04/02 08:31:56;;;;;;;14.55;13.08;;;;;;;8.13;64.14;100471.89;2116253;83;21722;-70
2021/04/02 08:34:59;;;;;;;13.13;11.93;;;;;;;8.38;64.81;100473.58;2112093;82;21167;-70
2021/04/02 08:38:05;;;;;;;11.83;10.63;;;;;;;8.40;63.05;100469.84;2111133;83;21164;-71
2021/04/02 08:41:30;;;;;;;11.80;10.43;;;;;;;8.43;63.88;100470.87;2106637;82;21459;-71
2021/04/02 08:44:41;;;;;;;8.98;8.18;;;;;;;8.97;61.39;100475.03;2110607;82;21219;-71
2021/04/02 08:47:43;;;;;;;11.63;9.85;;;;;;;9.21;61.16;100467.87;2106969;82;21258;-71
2021/04/02 08:50:48;;;;;;;9.08;8.28;;;;;;;9.20;59.54;100465.69;2109579;82;21144;-71
2021/04/02 08:53:49;;;;;;;7.95;7.25;;;;;;;9.16;59.75;100462.19;2109375;82;21394;-68
2021/04/02 08:56:50;;;;;;;9.05;8.10;;;;;;;9.41;59.87;100456.15;2110841;83;21164;-69
2021/04/02 08:59:54;;;;;;;10.43;8.50;;;;;;;9.41;56.09;100444.23;2096011;82;21153;-70
2021/04/02 09:02:57;;;;;;;8.73;7.87;;;;;;;9.68;59.67;100428.39;2106427;82;21304;-70
2021/04/02 09:05:58;;;;;;;9.20;7.87;;;;;;;10.23;58.68;100428.95;2111536;82;21152;-70
2021/04/02 09:09:02;;;;;;;8.60;7.70;;;;;;;10.45;56.74;100430.77;2096885;83;22076;-70
2021/04/02 09:12:11;;;;;;;9.23;8.43;;;;;;;10.26;56.01;100437.92;2113321;82;21104;-68
2021/04/02 09:15:26;;;;;;;9.33;7.97;;;;;;;10.15;56.11;100437.35;2113890;82;21242;-67
2021/04/02 09:18:28;;;;;;;8.20;7.42;;;;;;;10.47;57.46;100433.61;2106585;82;21682;-69
2021/04/02 09:21:31;;;;;;;7.65;6.92;;;;;;;10.53;55.44;100439.59;2110719;82;21175;-70
2021/04/02 09:24:41;;;;;;;8.78;7.97;;;;;;;10.57;55.47;100442.75;2113040;82;21163;-71
2021/04/02 09:27:42;;;;;;;9.77;8.87;;;;;;;10.48;55.21;100433.92;2109660;82;21148;-71
2021/04/02 09:30:44;;;;;;;7.92;7.15;;;;;;;10.66;55.75;100435.66;2114308;82;21105;-71
2021/04/02 09:33:53;;;;;;;8.10;7.30;;;;;;;11.12;55.84;100422.38;2112564;82;21227;-68
2021/04/02 09:36:56;;;;;;;7.42;6.72;;;;;;;11.72;56.16;100419.94;2109638;82;21524;-69
2021/04/02 09:40:02;;;;;;;7.28;6.55;;;;;;;12.14;54.34;100413.61;2114026;82;21199;-68
2021/04/02 09:43:04;;;;;;;6.53;5.37;;;;;;;12.30;54.49;100398.08;2114600;82;21116;-63
2021/04/02 09:46:06;;;;;;;6.00;5.40;;;;;;;12.69;53.59;100414.58;2110050;82;21239;-69
2021/04/02 09:49:18;;;;;;;6.22;5.62;;;;;;;12.79;53.60;100413.37;2106997;82;21861;-68
2021/04/02 09:52:20;;;;;;;5.15;4.65;;;;;;;13.12;53.58;100406.54;2109977;82;21349;-69
2021/04/02 09:55:22;;;;;;;6.45;5.80;;;;;;;13.33;52.02;100405.91;2084779;82;21132;-68
2021/04/02 09:58:24;;;;;;;7.12;6.53;;;;;;;13.59;50.58;100396.72;2119498;83;21651;-68
2021/04/02 10:01:25;;;;;;;7.00;6.30;;;;;;;13.54;51.41;100396.42;2116115;82;21124;-70
2021/04/02 10:04:28;;;;;;;6.80;6.15;;;;;;;13.60;49.98;100395.70;2110848;82;21588;-69
2021/04/02 10:07:29;;;;;;;6.97;6.28;;;;;;;13.33;49.75;100392.59;2107983;82;21168;-68
2021/04/02 10:10:31;;;;;;;7.70;6.17;;;;;;;13.38;50.52;100390.73;2109965;82;21197;-71
2021/04/02 10:13:33;;;;;;;6.03;5.42;;;;;;;13.53;50.80;100384.11;2112755;82;21171;-69
2021/04/02 10:16:35;;;;;;;6.00;5.42;;;;;;;13.50;49.07;100383.97;2100517;83;21097;-68
2021/04/02 10:19:40;;;;;;;5.70;5.12;;;;;;;13.13;50.30;100393.53;2082340;83;21727;-69
2021/04/02 10:22:43;;;;;;;6.37;5.72;;;;;;;12.69;49.63;100387.45;2086096;83;21145;-68
2021/04/02 10:25:47;;;;;;;6.30;5.70;;;;;;;12.59;49.53;100384.69;2099958;83;21194;-69
2021/04/02 10:28:49;;;;;;;7.15;6.42;;;;;;;12.61;50.31;100384.00;2076868;83;21576;-68
2021/04/02 10:31:50;;;;;;;5.97;5.35;;;;;;;12.79;50.39;100381.41;2089694;83;21176;-69
2021/04/02 10:34:53;;;;;;;7.00;5.83;;;;;;;12.89;49.75;100375.85;2090130;83;21087;-68
2021/04/02 10:37:56;;;;;;;5.83;5.25;;;;;;;12.98;49.90;100373.48;2069882;84;21109;-69
2021/04/02 10:40:57;;;;;;;7.05;6.35;;;;;;;13.01;49.19;100376.31;2157453;80;21185;-69
2021/04/02 10:43:59;;;;;;;7.62;6.17;;;;;;;12.99;49.33;100367.66;2154924;80;21177;-70
2021/04/02 10:47:02;;;;;;;7.28;6.65;;;;;;;12.96;48.70;100370.16;2164292;80;21150;-70
2021/04/02 10:50:05;;;;;;;8.10;7.30;;;;;;;12.89;49.11;100364.38;2163230;80;21255;-69
2021/04/02 10:53:07;;;;;;;7.87;7.08;;;;;;;12.73;48.81;100358.66;2146004;81;21198;-70
2021/04/02 10:56:10;;;;;;;7.85;7.15;;;;;;;12.83;49.63;100365.91;2140526;80;21211;-69
2021/04/02 10:59:13;;;;;;;8.70;7.47;;;;;;;12.89;49.25;100363.05;2156012;80;21176;-70
2021/04/02 11:02:15;;;;;;;7.78;7.08;;;;;;;13.00;49.21;100363.98;2157095;80;21244;-69
2021/04/02 11:05:18;;;;;;;8.15;7.30;;;;;;;13.07;48.17;100354.80;2138838;80;21179;-69
2021/04/02 11:08:19;;;;;;;8.10;7.28;;;;;;;12.97;48.41;100359.83;2125619;81;21171;-69
2021/04/02 11:11:22;;;;;;;9.10;8.18;;;;;;;12.99;48.06;100355.67;2172394;80;21148;-68
2021/04/02 11:14:24;;;;;;;8.83;7.92;;;;;;;12.90;48.23;100350.91;2132903;81;21140;-69
2021/04/02 11:17:27;;;;;;;11.68;9.15;;;;;;;12.92;48.04;100351.56;2148177;81;21153;-70
2021/04/02 11:20:33;;;;;;;11.85;9.78;;;;;;;12.85;47.47;100344.44;2137575;81;21544;-70
2021/04/02 11:23:34;;;;;;;9.03;7.85;;;;;;;12.75;47.92;100343.31;2130075;82;21651;-70
2021/04/02 11:26:37;;;;;;;11.03;9.15;;;;;;;12.55;47.42;100345.08;2151179;80;21104;-69
2021/04/02 11:29:40;;;;;;;9.00;7.80;;;;;;;12.54;47.80;100331.46;2139536;81;21477;-69
2021/04/02 11:32:42;;;;;;;8.85;7.78;;;;;;;12.59;47.00;100327.46;2083161;83;21100;-69
2021/04/02 11:35:43;;;;;;;9.25;8.35;;;;;;;12.49;47.43;100317.84;2147624;81;21156;-69
2021/04/02 11:38:45;;;;;;;10.90;9.40;;;;;;;12.51;47.82;100321.67;2106217;83;21167;-69
2021/04/02 11:41:47;;;;;;;10.80;8.13;;;;;;;12.58;47.59;100315.14;2144135;81;21095;-69
2021/04/02 11:44:50;;;;;;;8.98;8.08;;;;;;;12.60;47.60;100319.80;2138067;82;21197;-69
2021/04/02 11:47:51;;;;;;;9.08;8.18;;;;;;;12.75;47.50;100319.36;2123948;82;21183;-69
2021/04/02 11:50:53;;;;;;;10.55;8.25;;;;;;;12.79;47.34;100314.02;2121514;81;21218;-69
2021/04/02 11:53:55;;;;;;;12.28;10.23;;;;;;;12.71;47.23;100307.42;2125520;81;21623;-70
2021/04/02 11:56:58;;;;;;;11.15;8.38;;;;;;;12.54;47.40;100306.17;2119982;81;21171;-70
2021/04/02 12:00:01;;;;;;;8.78;7.90;;;;;;;12.62;47.49;100304.48;2119268;81;21548;-69
2021/04/02 12:03:03;;;;;;;9.80;8.08;;;;;;;12.75;47.40;100298.05;2124220;82;22734;-69
2021/04/02 12:06:05;;;;;;;10.13;8.28;;;;;;;12.89;47.00;100293.30;2146351;81;21104;-70
2021/04/02 12:09:10;;;;;;;9.85;8.68;;;;;;;12.95;46.89;100294.42;2153732;80;21198;-70
2021/04/02 12:12:11;;;;;;;10.20;8.40;;;;;;;12.67;46.73;100288.31;2126425;82;21121;-68
2021/04/02 12:15:15;;;;;;;9.63;8.50;;;;;;;12.62;46.61;100276.03;2123248;81;21134;-68
2021/04/02 12:18:17;;;;;;;10.28;8.83;;;;;;;12.52;46.35;100277.56;2085041;83;21285;-69
2021/04/02 12:21:19;;;;;;;9.60;8.60;;;;;;;12.51;46.65;100273.26;2115832;82;21187;-75
2021/04/02 12:24:21;;;;;;;10.88;7.92;;;;;;;12.55;46.68;100263.91;2108439;82;21203;-76
2021/04/02 12:27:22;;;;;;;10.63;8.33;;;;;;;12.58;46.33;100248.09;2111065;82;21148;-75
2021/04/02 12:30:24;;;;;;;8.58;7.67;;;;;;;12.61;45.84;100250.90;2109353;82;22287;-76
2021/04/02 12:33:26;;;;;;;11.73;9.28;;;;;;;12.46;46.10;100246.34;2106647;82;21137;-75
2021/04/02 12:36:27;;;;;;;8.88;7.65;;;;;;;12.39;46.51;100244.55;2108980;82;21666;-76
2021/04/02 12:39:28;;;;;;;9.23;8.10;;;;;;;12.40;46.44;100239.06;2111820;82;21146;-76
2021/04/02 12:42:30;;;;;;;8.88;7.95;;;;;;;12.46;46.27;100227.70;2100671;82;21144;-75
2021/04/02 12:45:32;;;;;;;10.80;8.75;;;;;;;12.51;45.96;100226.68;2107931;82;21203;-77
2021/04/02 12:48:34;;;;;;;10.78;8.03;;;;;;;12.42;46.06;100226.92;2102550;82;21204;-77
2021/04/02 12:51:35;;;;;;;10.35;8.98;;;;;;;12.39;45.45;100228.58;2101293;82;21050;-74
2021/04/02 12:54:40;;;;;;;9.80;8.75;;;;;;;12.15;45.98;100228.23;2104144;82;21683;-73
2021/04/02 12:57:43;;;;;;;9.28;8.38;;;;;;;12.13;46.22;100228.39;2105825;82;21124;-75
2021/04/02 13:00:45;;;;;;;9.10;8.20;;;;;;;12.25;46.13;100223.02;2109358;82;21125;-73
2021/04/02 13:03:46;;;;;;;9.70;8.50;;;;;;;12.25;46.13;100223.02;2107744;82;21239;-70
2021/04/02 13:06:48;;;;;;;9.15;8.25;;;;;;;12.30;46.50;100219.82;2110430;82;21142;-70
2021/04/02 13:09:49;;;;;;;10.20;8.35;;;;;;;11.99;45.53;100192.72;2108246;82;21294;-70
2021/04/02 13:12:51;;;;;;;10.93;7.67;;;;;;;12.04;45.54;100208.98;2103711;83;21172;-70
2021/04/02 13:15:53;;;;;;;10.55;7.85;;;;;;;12.09;45.93;100208.48;2103690;82;21797;-70
2021/04/02 13:18:54;;;;;;;8.90;8.00;;;;;;;12.12;45.74;100202.80;2112305;82;21122;-68
2021/04/02 13:21:56;;;;;;;10.00;8.38;;;;;;;12.03;45.45;100205.19;2115509;83;21089;-70
2021/04/02 13:24:59;;;;;;;10.93;8.58;;;;;;;11.90;45.72;100201.75;2110681;82;21127;-71
2021/04/02 13:28:04;;;;;;;9.40;8.40;;;;;;;11.88;45.89;100197.09;2111591;82;21658;-74
2021/04/02 13:31:05;;;;;;;9.35;8.45;;;;;;;11.92;45.94;100190.45;2111321;82;21203;-81
2021/04/02 13:34:07;;;;;;;8.88;7.97;;;;;;;11.69;46.04;100173.58;2108721;83;21159;-76
2021/04/02 13:37:08;;;;;;;9.70;8.80;;;;;;;11.77;45.30;100185.01;2115547;82;21108;-76
2021/04/02 13:40:13;;;;;;;8.93;8.03;;;;;;;11.66;46.02;100178.23;2111445;82;21171;-76
2021/04/02 13:43:14;;;;;;;9.23;8.33;;;;;;;11.67;46.31;100169.75;2110015;82;21671;-75
2021/04/02 13:46:16;;;;;;;10.93;8.20;;;;;;;11.67;46.31;100169.75;2113369;82;21184;-77
2021/04/02 13:49:17;;;;;;;9.60;8.65;;;;;;;11.73;46.23;100173.55;2112343;83;21171;-74
2021/04/02 13:52:21;;;;;;;10.98;8.23;;;;;;;11.66;46.45;100146.34;2113714;82;21145;-76
2021/04/02 13:55:24;;;;;;;10.15;9.05;;;;;;;11.80;46.57;100143.95;2110273;82;21596;-75
2021/04/02 13:58:25;;;;;;;9.63;8.63;;;;;;;11.80;46.57;100143.95;2112183;82;21132;-76
2021/04/02 14:01:27;;;;;;;10.10;8.70;;;;;;;12.21;47.05;100159.69;2114081;82;21535;-79
2021/04/02 14:04:28;;;;;;;9.98;8.55;;;;;;;12.27;46.45;100161.64;2114638;82;21091;-81
2021/04/02 14:07:30;;;;;;;9.63;8.45;;;;;;;12.27;46.45;100161.64;2115093;82;21180;-81
2021/04/02 14:10:37;;;;;;;11.60;9.33;;;;;;;12.19;45.70;100153.23;2111722;82;21228;-76
2021/04/02 14:13:38;;;;;;;8.88;7.97;;;;;;;12.14;45.97;100154.77;2109905;82;21121;-78